createdAt,value
2019-02-03T00:00:54.014Z,28.93
2019-02-03T00:03:23.161Z,30.20
2019-02-03T00:05:52.759Z,28.90
2019-02-03T00:08:21.891Z,31.30
2019-02-03T00:10:50.971Z,29.80
2019-02-03T00:13:20.061Z,29.63
2019-02-03T00:15:49.567Z,33.57
2019-02-03T00:18:18.726Z,31.10
2019-02-03T00:20:47.668Z,33.10
2019-02-03T00:23:16.898Z,34.70
2019-02-03T00:25:46.183Z,27.83
2019-02-03T00:28:15.115Z,32.63
2019-02-03T00:30:44.224Z,37.07
2019-02-03T00:33:13.122Z,34.50
2019-02-03T00:35:42.478Z,32.80
2019-02-03T00:38:21.352Z,34.77
2019-02-03T00:40:42.030Z,34.80
2019-02-03T00:43:11.472Z,33.43
2019-02-03T00:45:40.611Z,32.73
2019-02-03T00:48:09.974Z,38.27
2019-02-03T00:50:38.961Z,33.83
2019-02-03T00:53:08.044Z,36.53
2019-02-03T00:55:37.554Z,33.73
2019-02-03T00:58:07.282Z,37.00
2019-02-03T01:00:36.308Z,38.80
2019-02-03T01:03:05.521Z,39.53
2019-02-03T01:05:34.552Z,37.47
2019-02-03T01:08:04.758Z,38.83
2019-02-03T01:10:33.856Z,40.60
2019-02-03T01:13:02.853Z,40.67
2019-02-03T01:15:32.400Z,40.07
2019-02-03T01:18:01.645Z,43.63
2019-02-03T01:20:30.906Z,40.87
2019-02-03T01:23:00.583Z,38.67
2019-02-03T01:25:29.792Z,46.20
2019-02-03T01:27:59.194Z,45.33
2019-02-03T01:30:28.269Z,49.30
2019-02-03T01:32:57.581Z,50.80
2019-02-03T01:35:26.584Z,52.57
2019-02-03T01:37:56.067Z,53.57
2019-02-03T01:40:25.238Z,57.37
2019-02-03T01:42:54.257Z,55.30
2019-02-03T01:45:23.562Z,60.03
2019-02-03T01:47:52.703Z,60.70
2019-02-03T01:50:21.964Z,57.43
2019-02-03T01:52:51.064Z,59.70
2019-02-03T01:55:22.386Z,59.40
2019-02-03T01:57:51.490Z,62.43
2019-02-03T02:00:22.638Z,59.80
2019-02-03T02:02:52.196Z,63.77
2019-02-03T02:05:21.560Z,67.00
2019-02-03T02:07:51.990Z,62.87
2019-02-03T02:10:23.298Z,71.67
2019-02-03T02:12:52.392Z,60.87
2019-02-03T02:15:21.619Z,64.40
2019-02-03T02:17:51.634Z,73.67
2019-02-03T02:20:22.630Z,66.57
2019-02-03T02:22:51.698Z,76.67
2019-02-03T02:25:20.647Z,71.47
2019-02-03T02:27:49.761Z,67.43
2019-02-03T02:30:23.437Z,72.57
2019-02-03T02:32:52.581Z,70.73
2019-02-03T02:35:21.566Z,72.37
2019-02-03T02:37:50.569Z,72.57
2019-02-03T02:40:23.880Z,70.67
2019-02-03T02:42:53.142Z,76.33
2019-02-03T02:45:23.049Z,75.80
2019-02-03T02:47:52.132Z,73.83
2019-02-03T02:50:26.873Z,69.70
2019-02-03T02:52:55.944Z,71.70
2019-02-03T02:55:25.239Z,74.13
2019-02-03T02:57:54.273Z,71.37
2019-02-03T03:00:23.628Z,72.07
2019-02-03T03:02:52.911Z,69.80
2019-02-03T03:05:22.108Z,70.37
2019-02-03T03:07:51.187Z,72.27
2019-02-03T03:10:20.801Z,71.13
2019-02-03T03:12:49.930Z,81.57
2019-02-03T03:15:19.430Z,67.97
2019-02-03T03:17:48.770Z,75.40
2019-02-03T03:20:19.858Z,73.73
2019-02-03T03:22:49.026Z,69.43
2019-02-03T03:25:19.149Z,70.07
2019-02-03T03:27:48.123Z,76.30
2019-02-03T03:30:25.465Z,68.27
2019-02-03T03:32:54.966Z,75.13
2019-02-03T03:35:24.363Z,67.37
2019-02-03T03:37:53.450Z,66.63
2019-02-03T03:40:24.994Z,70.27
2019-02-03T03:42:53.970Z,71.87
2019-02-03T03:45:23.048Z,65.67
2019-02-03T03:47:52.152Z,64.20
2019-02-03T03:50:21.462Z,70.63
2019-02-03T03:52:50.822Z,69.70
2019-02-03T03:55:20.046Z,69.07
2019-02-03T03:57:49.111Z,67.83
2019-02-03T04:00:23.087Z,70.23
2019-02-03T04:02:52.481Z,65.43
2019-02-03T04:05:21.868Z,68.60
2019-02-03T04:07:50.943Z,68.80
2019-02-03T04:10:21.766Z,62.07
2019-02-03T04:12:50.721Z,65.37
2019-02-03T04:15:20.099Z,66.33
2019-02-03T04:17:49.740Z,65.10
2019-02-03T04:20:29.800Z,63.53
2019-02-03T04:22:59.054Z,65.83
2019-02-03T04:25:28.151Z,68.40
2019-02-03T04:27:57.997Z,67.53
2019-02-03T04:30:27.331Z,66.27
2019-02-03T04:32:56.413Z,67.67
2019-02-03T04:35:25.523Z,64.63
2019-02-03T04:37:54.492Z,66.77
2019-02-03T04:40:23.790Z,64.00
2019-02-03T04:42:52.848Z,63.10
2019-02-03T04:45:22.926Z,60.80
2019-02-03T04:47:52.073Z,59.33
2019-02-03T04:50:21.892Z,56.97
2019-02-03T04:52:50.852Z,58.30
2019-02-03T04:55:20.479Z,51.37
2019-02-03T04:57:49.540Z,51.93
2019-02-03T05:00:21.299Z,57.70
2019-02-03T05:02:50.925Z,56.83
2019-02-03T05:05:20.293Z,58.93
2019-02-03T05:07:49.480Z,62.93
2019-02-03T05:10:19.629Z,59.10
2019-02-03T05:12:48.549Z,58.77
2019-02-03T05:15:19.783Z,68.10
2019-02-03T05:17:49.784Z,72.00
2019-02-03T05:20:20.512Z,70.23
2019-02-03T05:22:49.602Z,79.10
2019-02-03T05:25:18.631Z,68.20
2019-02-03T05:27:47.679Z,75.80
2019-02-03T05:30:28.139Z,84.03
2019-02-03T05:32:57.073Z,83.40
2019-02-03T05:35:26.275Z,72.17
2019-02-03T05:37:55.346Z,71.17
2019-02-03T05:40:24.690Z,73.87
2019-02-03T05:42:53.631Z,75.13
2019-02-03T05:45:22.811Z,77.10
2019-02-03T05:47:52.058Z,74.10
2019-02-03T05:50:21.503Z,71.13
2019-02-03T05:52:50.502Z,68.40
2019-02-03T05:55:19.842Z,74.30
2019-02-03T05:57:48.879Z,75.10
2019-02-03T06:00:24.499Z,71.83
2019-02-03T06:02:53.475Z,72.10
2019-02-03T06:05:22.489Z,72.63
2019-02-03T06:07:51.542Z,74.73
2019-02-03T06:10:20.594Z,76.97
2019-02-03T06:12:49.595Z,72.40
2019-02-03T06:15:18.981Z,70.40
2019-02-03T06:17:48.014Z,74.93
2019-02-03T06:20:17.075Z,81.23
2019-02-03T06:22:47.019Z,76.33
2019-02-03T06:25:16.284Z,67.60
2019-02-03T06:27:45.518Z,69.37
2019-02-03T06:30:57.647Z,61.93
2019-02-03T06:33:27.136Z,71.47
2019-02-03T06:35:56.016Z,69.10
2019-02-03T06:38:25.242Z,77.30
2019-02-03T06:40:54.520Z,70.13
2019-02-03T06:43:23.542Z,68.60
2019-02-03T06:46:02.836Z,73.50
2019-02-03T06:48:31.914Z,74.07
2019-02-03T06:51:00.855Z,70.40
2019-02-03T06:53:29.892Z,79.40
2019-02-03T06:55:59.062Z,74.40
2019-02-03T06:58:28.091Z,80.33
2019-02-03T07:00:57.490Z,71.33
2019-02-03T07:03:26.500Z,73.43
2019-02-03T07:05:56.828Z,68.93
2019-02-03T07:08:25.966Z,82.33
2019-02-03T07:10:54.978Z,74.97
2019-02-03T07:13:23.968Z,74.40
2019-02-03T07:15:53.232Z,78.40
2019-02-03T07:18:22.273Z,77.63
2019-02-03T07:20:51.305Z,82.07
2019-02-03T07:23:20.217Z,82.83
2019-02-03T07:25:49.269Z,83.70
2019-02-03T07:28:18.642Z,79.97
2019-02-03T07:30:47.606Z,84.37
2019-02-03T07:33:17.352Z,76.23
2019-02-03T07:35:46.539Z,73.17
2019-02-03T07:38:15.466Z,80.33
2019-02-03T07:40:44.585Z,93.83
2019-02-03T07:43:13.888Z,82.40
2019-02-03T07:45:42.824Z,83.93
2019-02-03T07:48:11.723Z,77.87
2019-02-03T07:50:41.052Z,79.47
2019-02-03T07:53:10.350Z,78.10
2019-02-03T07:55:39.322Z,82.83
2019-02-03T07:58:08.244Z,94.97
2019-02-03T08:00:37.452Z,70.17
2019-02-03T08:03:07.146Z,76.03
2019-02-03T08:05:38.334Z,77.63
2019-02-03T08:08:07.504Z,76.77
2019-02-03T08:10:37.016Z,78.47
2019-02-03T08:13:06.018Z,70.13
2019-02-03T08:15:35.162Z,76.03
2019-02-03T08:18:05.215Z,77.93
2019-02-03T08:20:35.042Z,74.57
2019-02-03T08:23:04.449Z,73.80
2019-02-03T08:25:33.551Z,83.47
2019-02-03T08:28:02.632Z,69.97
2019-02-03T08:30:32.507Z,98.00
2019-02-03T08:33:01.706Z,97.37
2019-02-03T08:35:30.863Z,82.53
2019-02-03T08:37:59.918Z,90.60
2019-02-03T08:40:36.983Z,80.90
2019-02-03T08:42:59.899Z,86.40
2019-02-03T08:45:28.895Z,95.27
2019-02-03T08:47:58.184Z,103.47
2019-02-03T08:50:30.987Z,96.60
2019-02-03T08:53:00.703Z,92.27
2019-02-03T08:55:29.844Z,82.87
2019-02-03T08:58:00.530Z,87.53
2019-02-03T09:00:30.231Z,97.20
2019-02-03T09:02:59.374Z,95.07
2019-02-03T09:05:28.881Z,86.10
2019-02-03T09:07:58.121Z,82.27
2019-02-03T09:10:27.404Z,87.57
2019-02-03T09:12:59.469Z,91.40
2019-02-03T09:15:29.088Z,76.97
2019-02-03T09:17:58.045Z,77.63
2019-02-03T09:20:29.037Z,69.77
2019-02-03T09:23:02.320Z,70.27
2019-02-03T09:25:31.767Z,67.33
2019-02-03T09:28:00.856Z,59.40
2019-02-03T09:30:31.434Z,63.90
2019-02-03T09:33:00.552Z,73.07
2019-02-03T09:35:29.930Z,60.00
2019-02-03T09:37:59.115Z,56.70
2019-02-03T09:40:30.025Z,57.10
2019-02-03T09:42:59.115Z,56.97
2019-02-03T09:45:29.332Z,57.60
2019-02-03T09:47:58.485Z,57.43
2019-02-03T09:50:29.341Z,57.57
2019-02-03T09:53:00.220Z,55.10
2019-02-03T09:55:30.119Z,56.90
2019-02-03T09:58:00.003Z,54.40
2019-02-03T10:00:31.231Z,53.23
2019-02-03T10:03:01.883Z,53.87
2019-02-03T10:05:30.964Z,59.27
2019-02-03T10:07:59.918Z,52.37
2019-02-03T10:10:31.434Z,45.13
2019-02-03T10:13:01.851Z,47.67
2019-02-03T10:15:31.089Z,50.90
2019-02-03T10:18:03.436Z,50.30
2019-02-03T10:20:34.862Z,48.20
2019-02-03T10:23:06.223Z,55.57
2019-02-03T10:25:35.464Z,49.87
2019-02-03T10:28:05.480Z,54.67
2019-02-03T10:30:34.590Z,54.17
2019-02-03T10:33:03.637Z,55.50
2019-02-03T10:35:32.811Z,55.10
2019-02-03T10:38:02.408Z,52.87
2019-02-03T10:40:34.332Z,60.70
2019-02-03T10:43:03.885Z,56.03
2019-02-03T10:45:33.067Z,47.87
2019-02-03T10:48:02.432Z,53.23
2019-02-03T10:50:33.252Z,53.63
2019-02-03T10:53:03.602Z,50.53
2019-02-03T10:55:32.747Z,53.07
2019-02-03T10:58:01.821Z,53.00
2019-02-03T11:00:34.605Z,49.87
2019-02-03T11:03:04.316Z,46.33
2019-02-03T11:05:39.487Z,55.50
2019-02-03T11:08:11.918Z,46.33
2019-02-03T11:10:40.990Z,48.00
2019-02-03T11:13:10.434Z,46.70
2019-02-03T11:15:39.542Z,46.63
2019-02-03T11:18:08.752Z,45.23
2019-02-03T11:20:38.406Z,44.30
2019-02-03T11:23:07.530Z,46.07
2019-02-03T11:25:36.672Z,43.60
2019-02-03T11:28:06.450Z,43.73
2019-02-03T11:30:35.556Z,47.07
2019-02-03T11:33:09.599Z,45.43
2019-02-03T11:35:37.946Z,46.40
2019-02-03T11:38:07.267Z,45.83
2019-02-03T11:40:36.957Z,42.50
2019-02-03T11:43:07.035Z,42.00
2019-02-03T11:45:38.853Z,42.17
2019-02-03T11:48:16.105Z,41.10
2019-02-03T11:50:45.207Z,39.40
2019-02-03T11:53:15.703Z,38.97
2019-02-03T11:55:44.731Z,39.97
2019-02-03T11:58:14.004Z,39.73
2019-02-03T12:00:43.197Z,39.53
2019-02-03T12:03:12.385Z,38.57
2019-02-03T12:05:42.028Z,39.03
2019-02-03T12:08:11.596Z,39.37
2019-02-03T12:10:40.938Z,39.67
2019-02-03T12:13:10.721Z,35.77
2019-02-03T12:15:39.779Z,35.20
2019-02-03T12:18:15.204Z,37.57
2019-02-03T12:20:44.390Z,41.57
2019-02-03T12:23:13.405Z,35.73
2019-02-03T12:25:43.276Z,37.53
2019-02-03T12:28:12.646Z,37.27
2019-02-03T12:30:41.774Z,39.17
2019-02-03T12:33:10.969Z,42.00
2019-02-03T12:35:40.202Z,42.47
2019-02-03T12:38:09.563Z,37.00
2019-02-03T12:40:39.124Z,36.27
2019-02-03T12:43:08.726Z,36.70
2019-02-03T12:45:38.019Z,36.53
2019-02-03T12:48:08.166Z,37.50
2019-02-03T12:50:37.607Z,37.63
2019-02-03T12:53:07.075Z,38.40
2019-02-03T12:55:36.347Z,40.13
2019-02-03T12:58:06.503Z,39.37
2019-02-03T13:00:36.042Z,38.70
2019-02-03T13:03:05.470Z,41.73
2019-02-03T13:05:34.647Z,43.07
2019-02-03T13:08:04.463Z,42.17
2019-02-03T13:10:37.716Z,43.23
2019-02-03T13:13:07.876Z,39.93
2019-02-03T13:15:42.555Z,37.23
2019-02-03T13:18:12.795Z,36.07
2019-02-03T13:20:42.768Z,37.03
2019-02-03T13:23:12.237Z,36.67
2019-02-03T13:25:41.655Z,36.70
2019-02-03T13:28:11.120Z,33.53
2019-02-03T13:30:42.113Z,34.63
2019-02-03T13:33:12.085Z,36.57
2019-02-03T13:35:41.400Z,32.73
2019-02-03T13:38:10.768Z,35.50
2019-02-03T13:40:39.719Z,31.87
2019-02-03T13:43:08.804Z,35.07
2019-02-03T13:45:38.450Z,34.77
2019-02-03T13:48:09.457Z,35.53
2019-02-03T13:50:38.712Z,31.37
2019-02-03T13:53:08.036Z,31.00
2019-02-03T13:55:37.194Z,33.43
2019-02-03T13:58:06.375Z,31.77
2019-02-03T14:00:38.058Z,29.57
2019-02-03T14:03:10.989Z,31.93
2019-02-03T14:05:41.056Z,31.33
2019-02-03T14:08:10.565Z,28.27
2019-02-03T14:10:40.275Z,29.17
2019-02-03T14:13:10.734Z,26.43
2019-02-03T14:15:39.958Z,27.23
2019-02-03T14:18:10.086Z,28.27
2019-02-03T14:20:42.319Z,26.13
2019-02-03T14:23:11.823Z,26.37
2019-02-03T14:25:41.668Z,27.77
2019-02-03T14:28:10.698Z,26.63
2019-02-03T14:30:46.310Z,27.27
2019-02-03T14:33:16.109Z,24.73
2019-02-03T14:35:45.808Z,25.00
2019-02-03T14:38:14.992Z,27.00
2019-02-03T14:40:56.448Z,28.87
2019-02-03T14:43:25.632Z,24.07
2019-02-03T14:45:54.776Z,25.97
2019-02-03T14:48:23.940Z,25.43
2019-02-03T14:50:55.384Z,25.90
2019-02-03T14:53:30.346Z,27.67
2019-02-03T14:55:59.323Z,27.10
2019-02-03T14:58:28.439Z,26.50
2019-02-03T15:00:58.078Z,26.83
2019-02-03T15:03:27.886Z,26.80
2019-02-03T15:05:57.539Z,26.30
2019-02-03T15:08:38.460Z,30.13
2019-02-03T15:11:08.093Z,26.50
2019-02-03T15:13:37.339Z,29.63
2019-02-03T15:16:07.063Z,25.87
2019-02-03T15:18:36.365Z,23.50
2019-02-03T15:21:06.364Z,25.33
2019-02-03T15:23:35.645Z,23.43
2019-02-03T15:26:04.861Z,25.00
2019-02-03T15:28:33.924Z,22.67
2019-02-03T15:31:03.366Z,22.90
2019-02-03T15:33:32.459Z,23.87
2019-02-03T15:36:01.553Z,27.53
2019-02-03T15:38:30.540Z,22.83
2019-02-03T15:40:59.629Z,24.30
2019-02-03T15:43:29.232Z,23.10
2019-02-03T15:45:58.176Z,23.03
2019-02-03T15:48:27.184Z,24.70
2019-02-03T15:50:56.143Z,22.63
2019-02-03T15:53:25.380Z,23.93
2019-02-03T15:55:54.614Z,23.30
2019-02-03T15:58:27.699Z,22.73
2019-02-03T16:00:56.812Z,20.07
2019-02-03T16:03:26.251Z,20.23
2019-02-03T16:06:00.610Z,22.37
2019-02-03T16:08:29.767Z,21.57
2019-02-03T16:10:59.453Z,19.50
2019-02-03T16:13:36.738Z,20.80
2019-02-03T16:15:59.361Z,18.87
2019-02-03T16:18:28.692Z,20.60
2019-02-03T16:20:57.906Z,18.27
2019-02-03T16:23:26.991Z,20.83
2019-02-03T16:25:56.300Z,22.73
2019-02-03T16:28:25.865Z,22.77
2019-02-03T16:30:55.222Z,22.10
2019-02-03T16:33:24.227Z,21.30
2019-02-03T16:35:53.273Z,22.20
2019-02-03T16:38:23.360Z,22.57
2019-02-03T16:40:52.759Z,21.87
2019-02-03T16:43:21.821Z,18.90
2019-02-03T16:45:51.475Z,20.47
2019-02-03T16:48:20.909Z,23.17
2019-02-03T16:50:50.111Z,21.67
2019-02-03T16:53:21.918Z,23.17
2019-02-03T16:55:51.008Z,19.10
2019-02-03T16:58:20.363Z,22.03
2019-02-03T17:00:49.727Z,25.63
2019-02-03T17:03:18.885Z,21.20
2019-02-03T17:05:48.394Z,20.03
2019-02-03T17:08:20.638Z,21.93
2019-02-03T17:10:49.847Z,19.40
2019-02-03T17:13:19.058Z,21.27
2019-02-03T17:15:54.889Z,20.67
2019-02-03T17:18:24.372Z,19.37
2019-02-03T17:21:01.208Z,20.07
2019-02-03T17:23:24.375Z,23.57
2019-02-03T17:25:57.048Z,22.67
2019-02-03T17:28:27.036Z,24.70
2019-02-03T17:30:56.218Z,20.27
2019-02-03T17:33:25.360Z,22.17
2019-02-03T17:35:54.945Z,21.97
2019-02-03T17:38:24.600Z,20.00
2019-02-03T17:40:53.849Z,23.00
2019-02-03T17:43:23.020Z,22.30
2019-02-03T17:45:52.225Z,23.67
2019-02-03T17:48:25.532Z,21.87
2019-02-03T17:50:54.980Z,23.23
2019-02-03T17:53:24.466Z,21.50
2019-02-03T17:55:53.640Z,26.73
2019-02-03T17:58:22.697Z,26.53
2019-02-03T18:00:55.642Z,21.57
2019-02-03T18:03:24.870Z,23.50
2019-02-03T18:05:53.932Z,23.33
2019-02-03T18:08:24.518Z,21.83
2019-02-03T18:10:53.701Z,21.80
2019-02-03T18:13:23.009Z,18.23
2019-02-03T18:15:52.139Z,24.00
2019-02-03T18:18:21.795Z,22.87
2019-02-03T18:20:51.251Z,19.37
2019-02-03T18:23:20.305Z,21.33
2019-02-03T18:25:49.399Z,19.73
2019-02-03T18:28:18.435Z,23.03
2019-02-03T18:30:53.881Z,23.50
2019-02-03T18:33:23.369Z,22.73
2019-02-03T18:35:52.471Z,19.17
2019-02-03T18:38:23.142Z,20.60
2019-02-03T18:40:52.432Z,20.87
2019-02-03T18:43:21.807Z,20.83
2019-02-03T18:45:51.064Z,20.33
2019-02-03T18:48:21.291Z,19.60
2019-02-03T18:50:50.372Z,19.60
2019-02-03T18:53:19.511Z,20.07
2019-02-03T18:55:48.721Z,18.40
2019-02-03T18:58:18.277Z,17.47
2019-02-03T19:00:47.327Z,20.00
2019-02-03T19:03:16.500Z,21.37
2019-02-03T19:05:45.761Z,18.27
2019-02-03T19:08:15.263Z,18.73
2019-02-03T19:10:44.531Z,17.07
2019-02-03T19:13:13.627Z,19.10
2019-02-03T19:15:43.296Z,18.60
2019-02-03T19:18:12.575Z,21.97
2019-02-03T19:20:41.760Z,17.80
2019-02-03T19:23:12.066Z,20.10
2019-02-03T19:25:42.939Z,17.93
2019-02-03T19:28:12.209Z,16.37
2019-02-03T19:30:41.338Z,15.03
2019-02-03T19:33:10.613Z,18.07
2019-02-03T19:35:39.803Z,17.10
2019-02-03T19:38:09.171Z,15.93
2019-02-03T19:40:38.419Z,16.77
2019-02-03T19:43:08.135Z,15.73
2019-02-03T19:45:37.339Z,15.80
2019-02-03T19:48:07.702Z,16.43
2019-02-03T19:50:38.525Z,15.23
2019-02-03T19:53:08.680Z,16.10
2019-02-03T19:55:38.155Z,18.40
2019-02-03T19:58:08.265Z,13.77
2019-02-03T20:00:39.879Z,15.53
2019-02-03T20:03:09.592Z,13.27
2019-02-03T20:05:42.430Z,15.00
2019-02-03T20:08:11.139Z,12.77
2019-02-03T20:10:40.324Z,13.40
2019-02-03T20:13:09.682Z,12.17
2019-02-03T20:15:38.900Z,12.70
2019-02-03T20:18:08.075Z,13.57
2019-02-03T20:20:37.621Z,11.57
2019-02-03T20:23:06.928Z,12.43
2019-02-03T20:25:36.913Z,13.47
2019-02-03T20:28:06.916Z,13.83
2019-02-03T20:30:39.076Z,13.37
2019-02-03T20:33:07.458Z,12.30
2019-02-03T20:35:36.793Z,10.37
2019-02-03T20:38:06.982Z,13.47
2019-02-03T20:40:38.950Z,12.93
2019-02-03T20:43:08.270Z,12.97
2019-02-03T20:45:48.423Z,14.17
2019-02-03T20:48:10.709Z,12.13
2019-02-03T20:50:39.800Z,13.33
2019-02-03T20:53:08.820Z,12.97
2019-02-03T20:55:38.470Z,11.27
2019-02-03T20:58:07.631Z,14.00
2019-02-03T21:00:37.387Z,13.87
2019-02-03T21:03:07.057Z,11.67
2019-02-03T21:05:41.403Z,12.17
2019-02-03T21:08:10.509Z,14.60
2019-02-03T21:10:40.053Z,11.57
2019-02-03T21:13:11.430Z,10.50
2019-02-03T21:15:39.956Z,10.00
2019-02-03T21:18:09.794Z,10.77
2019-02-03T21:20:39.051Z,10.50
2019-02-03T21:23:08.309Z,8.80
2019-02-03T21:25:38.113Z,10.73
2019-02-03T21:28:07.368Z,8.97
2019-02-03T21:30:37.979Z,10.60
2019-02-03T21:33:09.713Z,10.83
2019-02-03T21:35:39.349Z,10.97
2019-02-03T21:38:09.641Z,8.13
2019-02-03T21:40:39.230Z,10.23
2019-02-03T21:43:08.589Z,10.53
2019-02-03T21:45:44.948Z,12.17
2019-02-03T21:48:15.100Z,9.20
2019-02-03T21:50:44.806Z,9.47
2019-02-03T21:53:13.935Z,12.47
2019-02-03T21:55:43.026Z,11.83
2019-02-03T21:58:12.597Z,8.17
2019-02-03T22:00:41.936Z,11.07
2019-02-03T22:03:11.866Z,9.07
2019-02-03T22:05:43.093Z,10.27
2019-02-03T22:08:12.346Z,8.83
2019-02-03T22:10:42.482Z,11.37
2019-02-03T22:13:11.929Z,9.80
2019-02-03T22:15:41.733Z,8.90
2019-02-03T22:18:12.400Z,9.00
2019-02-03T22:20:50.534Z,9.30
2019-02-03T22:23:24.802Z,9.80
2019-02-03T22:25:59.399Z,8.90
2019-02-03T22:28:28.834Z,8.53
2019-02-03T22:31:04.377Z,10.60
2019-02-03T22:33:34.741Z,9.07
2019-02-03T22:36:06.463Z,9.87
2019-02-03T22:38:35.654Z,8.10
2019-02-03T22:41:05.040Z,7.97
2019-02-03T22:43:34.399Z,8.70
2019-02-03T22:46:07.257Z,8.87
2019-02-03T22:48:36.238Z,8.87
2019-02-03T22:51:05.634Z,7.20
2019-02-03T22:53:37.694Z,9.80
2019-02-03T22:56:23.339Z,8.33
2019-02-03T22:58:53.418Z,8.53
2019-02-03T23:01:41.240Z,11.00
2019-02-03T23:04:23.794Z,8.83
2019-02-03T23:06:53.052Z,9.37
2019-02-03T23:09:33.106Z,9.90
2019-02-03T23:12:03.715Z,10.67
2019-02-03T23:14:38.292Z,8.50
2019-02-03T23:17:12.796Z,8.23
2019-02-03T23:19:41.994Z,8.60
2019-02-03T23:22:11.072Z,11.03
2019-02-03T23:24:40.442Z,8.27
2019-02-03T23:27:09.702Z,10.13
2019-02-03T23:29:38.760Z,8.93
2019-02-03T23:32:08.039Z,9.90
2019-02-03T23:34:37.028Z,7.73
2019-02-03T23:37:10.244Z,9.30
2019-02-03T23:39:39.500Z,9.43
2019-02-03T23:42:09.750Z,10.10
2019-02-03T23:44:38.680Z,8.03
2019-02-03T23:47:07.773Z,7.63
2019-02-03T23:49:36.822Z,8.40
2019-02-03T23:52:05.878Z,9.80
2019-02-03T23:54:34.810Z,7.83
2019-02-03T23:57:05.524Z,11.10
2019-02-03T23:59:34.678Z,9.50
